Time;durP1;ratioP1;P1;durP2;ratioP2;P2;SDS_P1;SDS_P2;PMS_P1;PMS_P2;Temp;Humidity;BMP_temperature;BMP_pressure;BME280_temperature;BME280_humidity;BME280_pressure;Samples;Min_cycle;Max_cycle;Signal;HPM_P1;HPM_P2
2023/12/18 00:01:26;;;;;;;23.23;12.77;;;6.00;99.90;;;;;;7284065;19;20196;-82
2023/12/18 00:03:51;;;;;;;25.70;13.27;;;6.10;99.90;;;;;;7282461;19;20195;-82
2023/12/18 00:06:17;;;;;;;23.53;12.87;;;6.10;99.90;;;;;;7272903;19;20928;-81
2023/12/18 00:08:43;;;;;;;25.23;12.13;;;6.10;99.90;;;;;;7283772;19;20187;-81
2023/12/18 00:11:10;;;;;;;28.43;13.43;;;6.10;99.90;;;;;;7285239;19;20191;-80
2023/12/18 00:13:35;;;;;;;23.63;13.10;;;6.00;99.90;;;;;;7307027;19;20233;-82
2023/12/18 00:16:02;;;;;;;24.50;12.97;;;6.10;99.90;;;;;;7283416;19;20193;-81
2023/12/18 00:18:27;;;;;;;30.00;12.87;;;6.20;99.90;;;;;;7282463;19;20291;-81
2023/12/18 00:20:53;;;;;;;22.73;12.77;;;6.20;99.90;;;;;;7283084;19;20205;-81
2023/12/18 00:23:19;;;;;;;25.30;13.30;;;6.10;99.90;;;;;;7282596;19;20256;-82
2023/12/18 00:25:46;;;;;;;25.13;13.20;;;6.00;99.90;;;;;;7278441;19;20205;-82
2023/12/18 00:28:12;;;;;;;20.97;12.97;;;6.00;99.90;;;;;;7282944;19;20185;-80
2023/12/18 00:30:37;;;;;;;26.57;13.47;;;5.90;99.90;;;;;;7298805;19;20240;-80
2023/12/18 00:33:03;;;;;;;26.90;13.47;;;6.00;99.90;;;;;;7299863;19;20191;-81
2023/12/18 00:35:29;;;;;;;26.73;13.73;;;6.00;99.90;;;;;;7283791;19;20251;-82
2023/12/18 00:37:55;;;;;;;26.93;13.47;;;5.90;99.90;;;;;;7282531;19;20203;-82
2023/12/18 00:40:21;;;;;;;24.47;13.40;;;6.00;99.90;;;;;;7283775;19;20185;-82
2023/12/18 00:42:50;;;;;;;26.00;13.53;;;5.90;99.90;;;;;;7283793;19;20189;-82
2023/12/18 00:45:16;;;;;;;27.70;13.30;;;5.90;99.90;;;;;;7288249;19;20648;-82
2023/12/18 00:47:42;;;;;;;25.27;14.33;;;6.00;99.90;;;;;;7283436;19;20191;-81
2023/12/18 00:50:09;;;;;;;25.70;14.27;;;5.90;99.90;;;;;;7298221;19;20205;-80
2023/12/18 00:52:39;;;;;;;25.40;13.57;;;5.90;99.90;;;;;;7305831;19;20177;-82
2023/12/18 00:55:06;;;;;;;26.10;14.17;;;5.90;99.90;;;;;;7283471;19;20315;-82
2023/12/18 00:57:32;;;;;;;27.43;14.43;;;5.90;99.90;;;;;;7281522;19;20589;-81
2023/12/18 00:59:59;;;;;;;30.50;13.90;;;5.90;99.90;;;;;;7280487;19;20198;-81
2023/12/18 01:02:24;;;;;;;26.47;14.90;;;5.90;99.90;;;;;;7280220;19;20215;-81
2023/12/18 01:04:50;;;;;;;28.20;14.90;;;5.90;99.90;;;;;;7280831;19;20230;-81
2023/12/18 01:07:16;;;;;;;28.43;15.63;;;5.90;99.90;;;;;;7283582;19;20195;-81
2023/12/18 01:09:42;;;;;;;32.00;15.20;;;5.80;99.90;;;;;;7282778;19;20192;-81
2023/12/18 01:12:07;;;;;;;33.27;16.67;;;5.80;99.90;;;;;;7297679;19;20214;-82
2023/12/18 01:14:34;;;;;;;34.47;15.83;;;5.80;99.90;;;;;;7310861;19;20193;-81
2023/12/18 01:17:00;;;;;;;34.37;16.63;;;5.70;99.90;;;;;;7288427;19;20191;-82
2023/12/18 01:19:26;;;;;;;37.33;17.00;;;5.80;99.90;;;;;;7286871;19;20196;-82
2023/12/18 01:21:51;;;;;;;34.90;17.53;;;5.60;99.90;;;;;;7288524;19;20189;-82
2023/12/18 01:24:18;;;;;;;36.33;16.93;;;5.60;99.90;;;;;;7288186;19;20195;-82
2023/12/18 01:26:44;;;;;;;38.83;17.03;;;5.70;99.90;;;;;;7289624;19;20191;-82
2023/12/18 01:29:09;;;;;;;35.17;17.30;;;5.70;99.90;;;;;;7287323;19;20196;-82
2023/12/18 01:31:35;;;;;;;34.10;15.97;;;5.70;99.90;;;;;;7310618;19;20184;-82
2023/12/18 01:34:01;;;;;;;31.57;16.53;;;5.70;99.90;;;;;;7287659;19;20188;-82
2023/12/18 01:36:28;;;;;;;35.50;17.87;;;5.60;99.90;;;;;;7287772;19;20178;-81
2023/12/18 01:38:54;;;;;;;35.53;17.40;;;5.60;99.90;;;;;;7288938;19;20528;-82
2023/12/18 01:41:20;;;;;;;37.90;17.23;;;5.60;99.90;;;;;;7288048;19;20283;-82
2023/12/18 01:43:46;;;;;;;35.90;17.33;;;5.60;99.90;;;;;;7288487;19;20184;-82
2023/12/18 01:46:22;;;;;;;34.93;17.80;;;5.60;99.90;;;;;;7292632;19;20191;-82
2023/12/18 01:48:48;;;;;;;36.97;17.03;;;5.70;99.90;;;;;;7293950;19;20227;-82
2023/12/18 01:51:14;;;;;;;35.53;17.43;;;5.60;99.90;;;;;;7294923;19;20191;-81
2023/12/18 01:53:44;;;;;;;35.80;17.63;;;5.50;99.90;;;;;;7291700;19;20614;-81
2023/12/18 01:56:13;;;;;;;36.23;16.70;;;5.50;99.90;;;;;;7294995;19;20188;-81
2023/12/18 01:58:41;;;;;;;36.30;16.87;;;5.50;99.90;;;;;;7293216;19;20200;-82
2023/12/18 02:01:08;;;;;;;39.33;18.20;;;5.60;99.90;;;;;;7310970;19;20188;-80
2023/12/18 02:03:35;;;;;;;35.07;17.10;;;5.70;99.90;;;;;;7308727;19;20673;-81
2023/12/18 02:06:03;;;;;;;38.70;17.87;;;5.80;99.90;;;;;;7288070;19;20277;-81
2023/12/18 02:08:33;;;;;;;36.13;17.03;;;5.90;99.90;;;;;;7288649;19;20296;-82
2023/12/18 02:11:00;;;;;;;36.13;16.67;;;5.90;99.90;;;;;;7290165;19;20185;-82
2023/12/18 02:13:26;;;;;;;39.10;17.97;;;6.10;99.90;;;;;;7289901;19;20177;-82
2023/12/18 02:15:52;;;;;;;40.63;17.40;;;6.10;99.90;;;;;;7288432;19;20189;-82
2023/12/18 02:18:18;;;;;;;36.97;17.77;;;6.20;99.90;;;;;;7287461;19;20185;-81
2023/12/18 02:20:44;;;;;;;33.60;17.27;;;6.40;99.90;;;;;;7287219;19;20221;-81
2023/12/18 02:23:10;;;;;;;33.53;16.93;;;6.40;99.90;;;;;;7287866;19;20550;-81
2023/12/18 02:25:36;;;;;;;32.73;15.73;;;6.40;99.90;;;;;;7307048;19;20307;-82
2023/12/18 02:28:04;;;;;;;33.30;16.83;;;6.50;99.90;;;;;;7284276;19;20193;-82
2023/12/18 02:30:32;;;;;;;36.40;16.60;;;6.60;99.90;;;;;;7284926;19;20528;-81
2023/12/18 02:32:58;;;;;;;32.00;16.67;;;6.60;99.90;;;;;;7287020;19;20195;-82
2023/12/18 02:35:24;;;;;;;31.90;16.63;;;6.50;99.90;;;;;;7285586;19;20821;-82
2023/12/18 02:37:52;;;;;;;32.93;16.97;;;6.30;99.90;;;;;;7282596;19;20190;-82
2023/12/18 02:40:18;;;;;;;32.90;16.40;;;6.30;99.90;;;;;;7283280;19;20184;-82
2023/12/18 02:42:44;;;;;;;32.10;16.47;;;6.40;99.90;;;;;;7283465;19;20675;-82
2023/12/18 02:45:10;;;;;;;33.63;16.77;;;6.30;99.90;;;;;;7284761;19;20192;-82
2023/12/18 02:47:36;;;;;;;37.63;18.00;;;6.30;99.90;;;;;;7307778;19;20278;-82
2023/12/18 02:50:03;;;;;;;39.20;17.67;;;6.30;99.90;;;;;;7288423;19;20199;-82
2023/12/18 02:52:29;;;;;;;34.03;16.70;;;6.20;99.90;;;;;;7287796;19;20218;-82
2023/12/18 02:54:54;;;;;;;43.17;17.63;;;6.20;99.90;;;;;;7287387;19;20647;-81
2023/12/18 02:57:20;;;;;;;34.80;17.63;;;6.40;99.90;;;;;;7285134;19;20210;-81
2023/12/18 02:59:46;;;;;;;35.57;17.27;;;6.50;99.90;;;;;;7285943;19;20311;-81
2023/12/18 03:02:12;;;;;;;40.93;18.37;;;6.50;99.90;;;;;;7286682;19;20195;-81
2023/12/18 03:04:40;;;;;;;37.07;18.17;;;6.50;99.90;;;;;;7301739;19;20297;-80
2023/12/18 03:07:07;;;;;;;34.60;18.53;;;6.40;99.90;;;;;;7309032;19;20185;-80
2023/12/18 03:09:32;;;;;;;34.20;18.13;;;6.40;99.90;;;;;;7284577;19;20217;-82
2023/12/18 03:11:58;;;;;;;41.20;18.50;;;6.30;99.90;;;;;;7284894;19;20193;-82
2023/12/18 03:14:24;;;;;;;35.30;18.23;;;6.40;99.90;;;;;;7286400;19;20192;-82
2023/12/18 03:16:49;;;;;;;37.73;18.20;;;6.30;99.90;;;;;;7285718;19;20193;-82
2023/12/18 03:19:16;;;;;;;38.37;19.17;;;6.30;99.90;;;;;;7284763;19;20201;-82
2023/12/18 03:21:42;;;;;;;39.40;19.43;;;6.20;99.90;;;;;;7286034;19;20739;-82
2023/12/18 03:24:07;;;;;;;36.90;19.03;;;6.20;99.90;;;;;;7308428;19;20215;-82
2023/12/18 03:26:33;;;;;;;41.77;19.47;;;6.20;99.90;;;;;;7285382;19;20364;-82
2023/12/18 03:28:59;;;;;;;37.17;19.50;;;6.10;99.90;;;;;;7286631;19;20509;-82
2023/12/18 03:31:25;;;;;;;40.47;19.80;;;6.10;99.90;;;;;;7286232;19;20202;-82
2023/12/18 03:33:50;;;;;;;37.27;19.10;;;6.20;99.90;;;;;;7284131;19;20541;-82
2023/12/18 03:36:16;;;;;;;37.93;19.90;;;6.10;99.90;;;;;;7284658;19;20189;-82
2023/12/18 03:38:42;;;;;;;45.43;20.10;;;6.20;99.90;;;;;;7287014;19;20188;-82
2023/12/18 03:41:08;;;;;;;46.63;21.00;;;6.20;99.90;;;;;;7316794;19;20200;-82
2023/12/18 03:43:34;;;;;;;36.43;19.20;;;6.30;99.90;;;;;;7287469;19;20202;-82
2023/12/18 03:46:00;;;;;;;44.90;21.03;;;6.30;99.90;;;;;;7284755;19;20348;-81
2023/12/18 03:48:25;;;;;;;45.17;20.23;;;6.40;99.90;;;;;;7283580;19;20186;-82
2023/12/18 03:50:51;;;;;;;45.57;21.13;;;6.40;99.90;;;;;;7284339;19;20260;-82
2023/12/18 03:53:17;;;;;;;44.70;20.33;;;6.50;99.90;;;;;;7285098;19;20177;-82
2023/12/18 03:55:42;;;;;;;38.93;20.30;;;6.50;99.90;;;;;;7285291;19;20279;-82
2023/12/18 03:58:09;;;;;;;43.37;21.00;;;6.50;99.90;;;;;;7292658;19;20188;-81
2023/12/18 04:00:34;;;;;;;41.20;20.00;;;6.50;99.90;;;;;;7301543;19;20202;-82
2023/12/18 04:03:03;;;;;;;43.10;20.67;;;6.50;99.90;;;;;;7283113;19;20192;-82
2023/12/18 04:05:29;;;;;;;43.17;21.27;;;6.60;99.90;;;;;;7280849;19;20237;-81
2023/12/18 04:07:54;;;;;;;49.03;20.10;;;6.60;99.90;;;;;;7282112;19;20210;-82
2023/12/18 04:10:20;;;;;;;50.20;22.10;;;6.60;99.90;;;;;;7282045;19;20190;-82
2023/12/18 04:12:46;;;;;;;44.47;21.03;;;6.50;99.90;;;;;;7285131;19;20775;-82
2023/12/18 04:15:13;;;;;;;41.87;21.73;;;6.50;99.90;;;;;;7283255;19;20189;-81
2023/12/18 04:17:38;;;;;;;47.70;20.90;;;6.50;99.90;;;;;;7297484;19;20552;-81
2023/12/18 04:20:05;;;;;;;43.03;20.77;;;6.50;99.90;;;;;;7298245;19;20242;-81
2023/12/18 04:22:31;;;;;;;45.10;20.73;;;6.40;99.90;;;;;;7285799;19;20230;-81
2023/12/18 04:24:57;;;;;;;48.83;21.77;;;6.50;99.90;;;;;;7284662;19;20193;-81
2023/12/18 04:27:23;;;;;;;44.47;21.43;;;6.50;99.90;;;;;;7280116;19;20202;-82
2023/12/18 04:29:49;;;;;;;43.30;21.87;;;6.60;99.90;;;;;;7284955;19;20631;-82
2023/12/18 04:32:14;;;;;;;47.63;21.80;;;6.60;99.90;;;;;;7284638;19;20202;-82
2023/12/18 04:34:44;;;;;;;46.73;22.17;;;6.60;99.90;;;;;;7284475;19;20315;-81
2023/12/18 04:37:10;;;;;;;45.63;21.90;;;6.50;99.90;;;;;;7288410;19;20178;-81
2023/12/18 04:39:36;;;;;;;43.27;22.30;;;6.60;99.90;;;;;;7308075;19;20189;-82
2023/12/18 04:42:02;;;;;;;45.43;21.70;;;6.60;99.90;;;;;;7284753;19;21044;-82
2023/12/18 04:44:28;;;;;;;49.50;21.57;;;6.50;99.90;;;;;;7285000;19;20194;-82
2023/12/18 04:46:54;;;;;;;49.63;23.10;;;6.40;99.90;;;;;;7281986;19;20199;-82
2023/12/18 04:49:20;;;;;;;48.20;22.40;;;6.50;99.90;;;;;;7284231;19;20632;-82
2023/12/18 04:51:47;;;;;;;45.73;22.73;;;6.50;99.90;;;;;;7284109;19;20193;-82
2023/12/18 04:54:13;;;;;;;49.87;22.37;;;6.50;99.90;;;;;;7282715;19;20189;-82
2023/12/18 04:56:39;;;;;;;49.33;23.57;;;6.50;99.90;;;;;;7291752;19;20215;-82
2023/12/18 04:59:05;;;;;;;48.97;22.67;;;6.50;99.90;;;;;;7305549;19;20191;-82
2023/12/18 05:01:31;;;;;;;52.30;23.23;;;6.50;99.90;;;;;;7282768;19;20188;-82
2023/12/18 05:03:57;;;;;;;48.00;23.70;;;6.40;99.90;;;;;;7283078;19;20253;-81
2023/12/18 05:06:26;;;;;;;50.73;24.03;;;6.30;99.90;;;;;;7283826;19;20211;-82
2023/12/18 05:08:52;;;;;;;57.60;23.93;;;6.20;99.90;;;;;;7292171;19;20192;-82
2023/12/18 05:11:22;;;;;;;54.10;25.33;;;6.10;99.90;;;;;;7283571;19;20706;-82
2023/12/18 05:13:49;;;;;;;55.10;24.03;;;6.10;99.90;;;;;;7283974;19;20191;-82
2023/12/18 05:16:16;;;;;;;57.93;25.17;;;6.10;99.90;;;;;;7283120;19;20182;-82
2023/12/18 05:18:43;;;;;;;57.63;24.87;;;6.10;99.90;;;;;;7279819;19;20196;-82
2023/12/18 05:21:10;;;;;;;60.73;26.93;;;6.20;99.90;;;;;;7295888;19;20187;-81
2023/12/18 05:23:36;;;;;;;74.20;27.40;;;6.10;99.90;;;;;;7303696;19;20227;-82
2023/12/18 05:26:03;;;;;;;61.83;26.67;;;6.10;99.90;;;;;;7280099;19;20188;-82
2023/12/18 05:28:29;;;;;;;65.27;27.67;;;6.10;99.90;;;;;;7282484;19;20235;-82
2023/12/18 05:30:55;;;;;;;64.53;25.87;;;5.90;99.90;;;;;;7282246;19;20193;-82
2023/12/18 05:33:21;;;;;;;60.43;26.23;;;5.80;99.90;;;;;;7281669;19;20198;-82
2023/12/18 05:35:47;;;;;;;69.43;27.23;;;5.80;99.90;;;;;;7283100;19;20184;-82
2023/12/18 05:38:13;;;;;;;64.33;27.17;;;5.80;99.90;;;;;;7283321;19;20205;-81
2023/12/18 05:40:39;;;;;;;64.50;27.13;;;5.90;99.90;;;;;;7284869;19;20199;-82
2023/12/18 05:43:07;;;;;;;65.33;26.20;;;5.90;99.90;;;;;;7305729;19;20653;-82
2023/12/18 05:45:33;;;;;;;67.87;27.23;;;5.90;99.90;;;;;;7282723;19;20306;-79
2023/12/18 05:47:59;;;;;;;64.77;26.83;;;6.00;99.90;;;;;;7281018;19;20219;-78
2023/12/18 05:50:25;;;;;;;64.07;26.30;;;6.10;99.90;;;;;;7282740;19;20532;-83
2023/12/18 05:52:51;;;;;;;65.40;27.33;;;6.10;99.90;;;;;;7279861;19;20196;-81
2023/12/18 05:55:16;;;;;;;63.23;26.27;;;6.20;99.90;;;;;;7283346;19;20194;-81
2023/12/18 05:57:42;;;;;;;58.03;26.23;;;6.30;99.90;;;;;;7282927;19;20204;-81
2023/12/18 06:00:09;;;;;;;63.73;26.57;;;6.30;99.90;;;;;;7305554;19;20184;-81
2023/12/18 06:02:36;;;;;;;66.10;26.00;;;6.40;99.90;;;;;;7309217;19;20197;-82
2023/12/18 06:05:02;;;;;;;64.10;25.97;;;6.20;99.90;;;;;;7288495;19;20286;-82
2023/12/18 06:07:28;;;;;;;61.43;25.90;;;6.30;99.90;;;;;;7287893;19;21933;-81
2023/12/18 06:09:54;;;;;;;58.80;24.73;;;6.20;99.90;;;;;;7287252;19;20205;-82
2023/12/18 06:12:20;;;;;;;59.40;24.70;;;6.20;99.90;;;;;;7285444;19;20207;-82
2023/12/18 06:14:46;;;;;;;56.40;24.10;;;6.00;99.90;;;;;;7285732;19;20198;-80
2023/12/18 06:17:12;;;;;;;50.57;23.23;;;6.00;99.90;;;;;;7288210;19;20204;-81
2023/12/18 06:19:39;;;;;;;55.50;23.40;;;6.00;99.90;;;;;;7310007;19;20614;-81
2023/12/18 06:22:05;;;;;;;56.47;24.57;;;6.00;99.90;;;;;;7285799;19;20198;-81
2023/12/18 06:24:31;;;;;;;51.43;21.70;;;6.10;99.90;;;;;;7283921;19;20195;-83
2023/12/18 06:26:57;;;;;;;50.47;22.37;;;6.20;99.90;;;;;;7328075;19;20195;-84
2023/12/18 06:29:26;;;;;;;48.93;23.00;;;6.20;99.90;;;;;;7392144;19;20166;-84
2023/12/18 06:31:51;;;;;;;50.70;21.87;;;6.20;99.90;;;;;;7284235;19;20574;-84
2023/12/18 06:34:18;;;;;;;48.37;21.60;;;6.10;99.90;;;;;;7326424;19;20191;-83
2023/12/18 06:36:43;;;;;;;54.60;22.50;;;6.00;99.90;;;;;;7293994;19;20808;-82
2023/12/18 06:39:11;;;;;;;52.13;22.13;;;5.90;99.90;;;;;;7361348;19;20213;-82
2023/12/18 06:41:36;;;;;;;53.43;22.63;;;5.90;99.90;;;;;;7309149;19;20979;-83
2023/12/18 06:44:03;;;;;;;55.63;26.23;;;5.90;99.90;;;;;;7283898;19;20704;-83
2023/12/18 06:46:29;;;;;;;48.03;21.57;;;6.00;99.90;;;;;;7287116;19;20202;-82
2023/12/18 06:48:56;;;;;;;48.37;22.33;;;6.10;99.90;;;;;;7286855;19;20196;-83
2023/12/18 06:51:22;;;;;;;41.40;20.63;;;6.10;99.90;;;;;;7283704;19;20185;-82
2023/12/18 06:53:48;;;;;;;45.30;19.80;;;6.00;99.90;;;;;;7284644;19;20219;-82
2023/12/18 06:56:13;;;;;;;47.63;20.67;;;6.00;99.90;;;;;;7286226;19;20652;-82
2023/12/18 06:58:39;;;;;;;45.60;19.90;;;6.00;99.90;;;;;;7292332;19;20679;-82
2023/12/18 07:01:05;;;;;;;43.57;20.03;;;6.00;99.90;;;;;;7305529;19;20699;-80
2023/12/18 07:03:31;;;;;;;44.73;19.47;;;6.00;99.90;;;;;;7285380;19;20560;-82
2023/12/18 07:05:57;;;;;;;44.90;19.83;;;5.90;99.90;;;;;;7286905;19;20195;-82
2023/12/18 07:08:22;;;;;;;48.07;22.83;;;5.90;99.90;;;;;;7286425;19;20680;-81
2023/12/18 07:10:49;;;;;;;43.73;19.60;;;5.80;99.90;;;;;;7283387;19;20190;-82
2023/12/18 07:13:15;;;;;;;40.97;19.90;;;5.80;99.90;;;;;;7285866;19;20209;-81
2023/12/18 07:15:41;;;;;;;43.77;19.83;;;5.80;99.90;;;;;;7286968;19;20192;-82
2023/12/18 07:18:08;;;;;;;43.53;19.33;;;5.80;99.90;;;;;;7307534;19;20200;-82
2023/12/18 07:20:34;;;;;;;45.00;19.20;;;5.70;99.90;;;;;;7287936;19;20192;-82
2023/12/18 07:22:59;;;;;;;40.73;18.87;;;5.80;99.90;;;;;;7287013;19;20199;-82
2023/12/18 07:25:25;;;;;;;50.07;19.37;;;5.70;99.90;;;;;;7286373;19;20189;-81
2023/12/18 07:27:51;;;;;;;44.37;19.63;;;5.60;99.90;;;;;;7286537;19;20207;-80
2023/12/18 07:30:17;;;;;;;42.00;18.53;;;5.80;99.90;;;;;;7283788;19;20227;-81
2023/12/18 07:32:43;;;;;;;41.73;19.50;;;5.90;99.90;;;;;;7284169;19;20188;-81
2023/12/18 07:35:09;;;;;;;43.47;18.57;;;5.80;99.90;;;;;;7298973;19;20214;-81
2023/12/18 07:37:35;;;;;;;42.87;18.90;;;5.80;99.90;;;;;;7294053;19;20253;-81
2023/12/18 07:40:01;;;;;;;39.20;17.50;;;5.90;99.90;;;;;;7281798;19;20875;-81
2023/12/18 07:42:27;;;;;;;44.70;19.23;;;5.70;99.90;;;;;;7284154;19;20181;-82
2023/12/18 07:44:53;;;;;;;42.73;19.10;;;5.70;99.90;;;;;;7285930;19;20217;-81
2023/12/18 07:47:19;;;;;;;41.77;19.33;;;5.70;99.90;;;;;;7284468;19;20193;-81
2023/12/18 07:49:45;;;;;;;39.27;18.73;;;5.70;99.90;;;;;;7284579;19;20648;-81
2023/12/18 07:52:11;;;;;;;41.37;19.50;;;5.70;99.90;;;;;;7282294;19;20199;-81
2023/12/18 07:54:36;;;;;;;40.60;18.57;;;5.80;99.90;;;;;;7304100;19;20214;-81
2023/12/18 07:57:02;;;;;;;40.47;18.23;;;5.80;99.90;;;;;;7283998;19;20195;-81
2023/12/18 07:59:28;;;;;;;44.70;18.47;;;6.00;99.90;;;;;;7285289;19;20990;-82
2023/12/18 08:01:54;;;;;;;36.47;17.30;;;6.00;99.90;;;;;;7283377;19;20629;-81
2023/12/18 08:04:20;;;;;;;39.57;17.93;;;5.90;99.90;;;;;;7287701;19;20208;-81
2023/12/18 08:06:47;;;;;;;34.97;17.37;;;5.90;99.90;;;;;;7285355;19;20193;-82
2023/12/18 08:09:14;;;;;;;39.20;17.93;;;5.80;99.90;;;;;;7285333;19;20540;-81
2023/12/18 08:11:40;;;;;;;39.30;17.57;;;5.90;99.90;;;;;;7304466;19;20212;-81
2023/12/18 08:14:06;;;;;;;39.20;17.63;;;5.90;99.90;;;;;;7283292;19;20194;-82
2023/12/18 08:16:32;;;;;;;40.33;17.93;;;5.90;99.90;;;;;;7283952;19;20660;-82
2023/12/18 08:18:58;;;;;;;39.13;17.63;;;5.90;99.90;;;;;;7284028;19;20181;-82
2023/12/18 08:21:27;;;;;;;40.63;17.70;;;6.00;99.90;;;;;;7283458;19;20219;-82
2023/12/18 08:23:53;;;;;;;37.07;18.77;;;5.90;99.90;;;;;;7284127;19;20202;-81
2023/12/18 08:26:19;;;;;;;37.83;17.20;;;5.90;99.90;;;;;;7279844;19;20216;-82
2023/12/18 08:28:45;;;;;;;40.33;17.70;;;5.80;99.90;;;;;;7285404;19;20185;-81
2023/12/18 08:31:12;;;;;;;40.63;18.37;;;5.90;99.90;;;;;;7283545;19;20644;-82
2023/12/18 08:33:41;;;;;;;43.80;20.73;;;5.80;99.90;;;;;;7300229;19;20600;-82
2023/12/18 08:36:07;;;;;;;40.87;17.20;;;5.70;99.90;;;;;;7283883;19;20218;-81
2023/12/18 08:38:33;;;;;;;39.53;17.23;;;5.70;99.90;;;;;;7282742;19;20556;-81
2023/12/18 08:40:59;;;;;;;43.63;19.13;;;5.70;99.90;;;;;;7284488;19;20236;-81
2023/12/18 08:43:25;;;;;;;38.90;16.83;;;5.80;99.90;;;;;;7283295;19;20196;-80
2023/12/18 08:45:50;;;;;;;38.33;17.30;;;5.90;99.90;;;;;;7282069;19;20214;-81
2023/12/18 08:48:16;;;;;;;43.50;17.90;;;5.70;99.90;;;;;;7283128;19;20836;-81
2023/12/18 08:50:43;;;;;;;40.60;18.07;;;5.60;99.90;;;;;;7282416;19;20673;-81
2023/12/18 08:53:09;;;;;;;39.97;16.93;;;5.60;99.90;;;;;;7302807;19;20191;-81
2023/12/18 08:55:38;;;;;;;38.70;17.83;;;5.50;99.90;;;;;;7294500;19;20192;-82
2023/12/18 08:58:07;;;;;;;37.70;17.73;;;5.60;99.90;;;;;;7283315;19;21191;-82
2023/12/18 09:00:32;;;;;;;39.07;17.47;;;5.60;99.90;;;;;;7284440;19;20284;-82
2023/12/18 09:02:58;;;;;;;40.33;17.00;;;5.70;99.90;;;;;;7284293;19;20672;-82
2023/12/18 09:05:24;;;;;;;39.27;17.13;;;5.70;99.90;;;;;;7282746;19;20196;-82
2023/12/18 09:07:50;;;;;;;36.93;17.23;;;5.60;99.90;;;;;;7283590;19;20198;-81
2023/12/18 09:10:22;;;;;;;38.10;16.53;;;5.60;99.90;;;;;;7280447;19;20203;-81
2023/12/18 09:12:52;;;;;;;41.33;17.40;;;5.60;99.90;;;;;;7281048;19;20264;-81
2023/12/18 09:15:18;;;;;;;38.33;17.07;;;5.60;99.90;;;;;;7284127;19;20656;-81
2023/12/18 09:17:45;;;;;;;35.70;16.67;;;5.60;99.90;;;;;;7281204;19;20193;-81
2023/12/18 09:20:11;;;;;;;34.77;17.07;;;5.60;99.90;;;;;;7281432;19;20197;-81
2023/12/18 09:22:38;;;;;;;34.90;15.63;;;5.60;99.90;;;;;;7304527;19;20177;-82
2023/12/18 09:25:04;;;;;;;34.33;16.23;;;5.60;99.90;;;;;;7282821;19;20201;-82
2023/12/18 09:27:31;;;;;;;34.07;15.77;;;5.70;99.90;;;;;;7283089;19;21016;-82
2023/12/18 09:29:57;;;;;;;33.77;15.60;;;5.90;99.90;;;;;;7281927;19;20192;-81
2023/12/18 09:32:23;;;;;;;35.83;16.20;;;5.90;99.90;;;;;;7284364;19;20275;-81
2023/12/18 09:34:49;;;;;;;35.27;15.67;;;5.90;99.90;;;;;;7287084;19;20188;-82
2023/12/18 09:37:15;;;;;;;38.17;17.10;;;5.90;99.90;;;;;;7287573;19;20192;-82
2023/12/18 09:39:41;;;;;;;32.70;15.77;;;6.10;99.90;;;;;;7289765;19;20191;-82
2023/12/18 09:42:10;;;;;;;36.97;16.33;;;6.20;99.90;;;;;;7306053;19;20195;-82
2023/12/18 09:44:36;;;;;;;32.37;16.23;;;6.40;99.90;;;;;;7286578;19;20665;-80
2023/12/18 09:47:02;;;;;;;33.20;16.53;;;6.50;99.90;;;;;;7286433;19;20191;-81
2023/12/18 09:49:29;;;;;;;35.47;17.53;;;6.50;99.90;;;;;;7286699;19;20304;-82
2023/12/18 09:52:00;;;;;;;34.40;16.77;;;6.60;99.90;;;;;;7285696;19;20541;-82
2023/12/18 09:54:27;;;;;;;31.97;16.20;;;6.80;99.90;;;;;;7287577;19;20205;-82
2023/12/18 09:56:55;;;;;;;32.57;15.53;;;6.70;99.90;;;;;;7284791;19;20211;-82
2023/12/18 09:59:22;;;;;;;35.30;16.20;;;6.80;99.90;;;;;;7285000;19;20193;-81
2023/12/18 10:01:49;;;;;;;31.77;16.57;;;6.60;99.90;;;;;;7282602;19;20194;-82
2023/12/18 10:04:14;;;;;;;34.83;16.67;;;6.60;99.90;;;;;;7284685;19;20198;-82
2023/12/18 10:06:40;;;;;;;30.40;15.80;;;6.60;99.90;;;;;;7293105;19;20550;-82
2023/12/18 10:09:14;;;;;;;31.93;15.27;;;6.70;99.90;;;;;;7312298;19;21024;-82
2023/12/18 10:11:41;;;;;;;35.70;16.10;;;6.80;99.90;;;;;;7279838;19;20196;-81
2023/12/18 10:14:07;;;;;;;35.70;15.93;;;6.80;99.90;;;;;;7307379;19;20193;-83
2023/12/18 10:16:33;;;;;;;32.00;16.50;;;6.80;99.90;;;;;;7288108;19;20992;-82
2023/12/18 10:18:59;;;;;;;35.43;15.73;;;6.80;99.90;;;;;;7288570;19;20196;-82
2023/12/18 10:21:25;;;;;;;32.40;15.17;;;6.90;99.90;;;;;;7288036;19;20656;-82
2023/12/18 10:23:54;;;;;;;35.80;16.10;;;7.00;99.90;;;;;;7287862;19;20688;-83
2023/12/18 10:26:21;;;;;;;35.37;16.10;;;7.00;99.90;;;;;;7284154;19;20219;-82
2023/12/18 10:28:50;;;;;;;31.13;15.30;;;7.00;99.90;;;;;;7286338;19;20189;-82
2023/12/18 10:31:16;;;;;;;31.83;14.73;;;7.10;99.90;;;;;;7287833;19;20199;-82
2023/12/18 10:33:42;;;;;;;32.97;15.80;;;7.00;99.90;;;;;;7286903;19;20210;-82
2023/12/18 10:36:09;;;;;;;33.90;16.20;;;7.20;99.90;;;;;;7309937;19;20207;-82
2023/12/18 10:38:38;;;;;;;33.23;15.87;;;7.30;99.90;;;;;;7285603;19;20190;-83
2023/12/18 10:41:04;;;;;;;32.03;16.07;;;7.40;99.90;;;;;;7284516;19;20193;-83
2023/12/18 10:43:35;;;;;;;34.77;15.50;;;7.50;99.90;;;;;;7288277;19;20189;-82
2023/12/18 10:46:02;;;;;;;34.23;15.33;;;7.70;99.90;;;;;;7286146;19;20193;-83
2023/12/18 10:48:29;;;;;;;29.30;15.57;;;7.60;99.90;;;;;;7287449;19;20189;-82
2023/12/18 10:50:56;;;;;;;33.20;15.33;;;7.60;99.90;;;;;;7287553;19;20190;-82
2023/12/18 10:53:24;;;;;;;29.37;15.50;;;7.60;99.90;;;;;;7287348;19;20204;-83
2023/12/18 10:55:52;;;;;;;29.07;14.60;;;7.60;99.90;;;;;;7287836;19;20188;-82
2023/12/18 10:58:18;;;;;;;31.00;14.73;;;7.50;99.90;;;;;;7287305;19;20184;-83
2023/12/18 11:00:44;;;;;;;30.53;14.93;;;7.60;99.90;;;;;;7289465;19;20188;-82
2023/12/18 11:03:13;;;;;;;33.50;15.83;;;7.60;99.90;;;;;;7298146;19;20600;-82
2023/12/18 11:05:41;;;;;;;35.87;16.17;;;7.40;99.90;;;;;;7307518;19;20217;-82
2023/12/18 11:08:06;;;;;;;34.33;16.10;;;7.40;99.90;;;;;;7287835;19;20193;-82
2023/12/18 11:10:32;;;;;;;33.10;15.87;;;7.50;99.90;;;;;;7287662;19;20660;-81
2023/12/18 11:13:14;;;;;;;30.97;15.10;;;7.60;99.90;;;;;;7287218;19;20187;-81
2023/12/18 11:15:55;;;;;;;32.57;15.60;;;7.30;99.90;;;;;;7282261;19;20698;-81
2023/12/18 11:18:28;;;;;;;34.90;16.23;;;7.30;99.90;;;;;;7287096;19;20212;-80
2023/12/18 11:20:56;;;;;;;32.57;16.20;;;7.10;99.90;;;;;;7286519;19;20202;-81
2023/12/18 11:23:26;;;;;;;33.90;16.53;;;7.10;99.90;;;;;;7287250;19;20196;-81
2023/12/18 11:25:52;;;;;;;39.27;17.53;;;7.00;99.90;;;;;;7285671;19;20181;-81
2023/12/18 11:28:20;;;;;;;36.93;17.00;;;7.10;99.90;;;;;;7286809;19;20267;-81
2023/12/18 11:30:45;;;;;;;36.17;16.30;;;7.30;99.90;;;;;;7286585;19;20273;-81
2023/12/18 11:33:14;;;;;;;39.33;17.20;;;7.20;99.90;;;;;;7286236;19;20202;-82
2023/12/18 11:35:45;;;;;;;34.90;17.10;;;7.20;99.90;;;;;;7303775;19;20185;-81
2023/12/18 11:38:17;;;;;;;35.70;17.50;;;7.10;99.90;;;;;;7290439;19;20280;-82
2023/12/18 11:40:45;;;;;;;33.67;15.93;;;7.20;99.90;;;;;;7283963;19;20195;-83
2023/12/18 11:43:12;;;;;;;37.87;17.23;;;7.30;99.90;;;;;;7296065;19;20660;-81
2023/12/18 11:45:42;;;;;;;35.50;17.07;;;7.10;99.90;;;;;;7307152;19;20196;-81
2023/12/18 11:48:13;;;;;;;37.23;16.90;;;7.00;99.90;;;;;;7286043;19;20293;-82
2023/12/18 11:50:40;;;;;;;34.90;16.23;;;7.10;99.90;;;;;;7285645;19;20225;-81
2023/12/18 11:53:07;;;;;;;35.77;16.97;;;7.10;99.90;;;;;;7283499;19;20195;-82
2023/12/18 11:55:45;;;;;;;38.20;18.00;;;7.20;99.90;;;;;;7285282;19;20196;-82
2023/12/18 11:58:11;;;;;;;39.10;19.10;;;7.20;99.90;;;;;;7272232;19;20196;-80
2023/12/18 12:00:38;;;;;;;39.43;18.13;;;7.30;99.90;;;;;;7305458;19;20193;-82
2023/12/18 12:03:04;;;;;;;37.60;18.30;;;7.30;99.90;;;;;;7284933;19;20197;-82
2023/12/18 12:05:32;;;;;;;35.43;18.20;;;7.40;99.90;;;;;;7289381;19;20198;-82
2023/12/18 12:07:59;;;;;;;34.40;16.63;;;7.40;99.90;;;;;;7289040;19;20204;-82
2023/12/18 12:10:24;;;;;;;37.07;17.30;;;7.30;99.90;;;;;;7291137;19;20188;-82
2023/12/18 12:12:54;;;;;;;37.43;16.67;;;7.20;99.90;;;;;;7289597;19;20553;-82
2023/12/18 12:15:28;;;;;;;35.10;16.43;;;7.20;99.90;;;;;;7290232;19;20588;-82
2023/12/18 12:18:06;;;;;;;36.87;17.20;;;7.20;99.90;;;;;;7288080;19;20309;-81
2023/12/18 12:20:32;;;;;;;38.30;17.97;;;7.10;99.90;;;;;;7283381;19;20276;-82
2023/12/18 12:22:58;;;;;;;37.87;18.97;;;7.00;99.90;;;;;;7284911;19;20185;-81
2023/12/18 12:25:24;;;;;;;37.63;18.40;;;6.90;99.90;;;;;;7284106;19;20196;-82
2023/12/18 12:27:51;;;;;;;31.40;17.20;;;6.90;99.90;;;;;;7283216;19;20319;-82
2023/12/18 12:30:18;;;;;;;38.40;17.73;;;7.10;99.90;;;;;;7286488;19;20785;-83
2023/12/18 12:32:46;;;;;;;36.47;17.90;;;7.10;99.90;;;;;;7283911;19;20188;-81